Terminal Aerodrome Forecast
Issued by NWS

Home | Current Version | Previous Version | Graphics & Text | Print | Product List | Glossary On
Versions: 1 2 3 4 5 6 7 8 9 10 11 12 13 14 15 16 17 18 19 20
000
FTUS43 KGRB 211130
TAFRHI
TAF
KRHI 211130Z 2112/2212 18010G17KT P6SM SCT080 BKN120 WS017/21040KT
     FM211300 18012G22KT P6SM SCT080 BKN120
      TEMPO 2113/2116 -SHRA SCT040 BKN070
     FM212200 17010KT P6SM BKN040 WS020/21045KT
     FM220500 18009KT P6SM -SHRA OVC035 WS020/21045KT
     FM220900 22007KT 4SM -SHRA OVC025 WS020/21040KT=

USA.gov is the U.S. government's official web portal to all federal, state and local government web resources and services.